Terminal Aerodrome Forecast
Issued by NWS Springfield, MO

Home | Current Version | Previous Version | Text Only | Print | Product List | Glossary On
Versions: 1 2 3 4 5 6 7 8 9 10 11 12 13 14 15 16 17 18 19 20 21 22 23 24 25 26 27 28 29 30 31 32 33 34 35
000
FTUS43 KSGF 181106 AAE
TAFSGF
TAF AMD
KSGF 181106Z 1811/1906 15010KT 6SM BR FEW020
     FM181300 15013G20KT 6SM BR FEW120
     FM181500 15020G29KT P6SM FEW130
     FM190300 17017G26KT P6SM BKN250 WS020/21050KT=

USA.gov is the U.S. government's official web portal to all federal, state and local government web resources and services.